createdAt,value
2019-01-29T00:00:52.220Z,1.20
2019-01-29T00:01:52.212Z,0.80
2019-01-29T00:02:52.201Z,1.10
2019-01-29T00:03:52.199Z,0.90
2019-01-29T00:04:52.218Z,1.50
2019-01-29T00:05:52.186Z,0.80
2019-01-29T00:06:52.175Z,1.00
2019-01-29T00:07:52.165Z,0.90
2019-01-29T00:08:52.161Z,0.70
2019-01-29T00:09:52.189Z,0.60
2019-01-29T00:10:52.149Z,1.00
2019-01-29T00:11:52.138Z,0.90
2019-01-29T00:12:52.133Z,0.80
2019-01-29T00:13:52.126Z,0.90
2019-01-29T00:14:52.149Z,0.60
2019-01-29T00:15:52.113Z,0.50
2019-01-29T00:16:52.103Z,1.10
2019-01-29T00:17:52.085Z,0.70
2019-01-29T00:18:52.091Z,1.20
2019-01-29T00:19:52.113Z,1.00
2019-01-29T00:20:52.072Z,0.70
2019-01-29T00:21:52.068Z,0.50
2019-01-29T00:22:52.068Z,1.20
2019-01-29T00:23:52.056Z,0.80
2019-01-29T00:24:52.077Z,0.80
2019-01-29T00:25:52.038Z,1.20
2019-01-29T00:26:52.064Z,0.90
2019-01-29T00:27:52.029Z,0.90
2019-01-29T00:28:52.014Z,0.70
2019-01-29T00:29:52.017Z,0.80
2019-01-29T00:30:52.031Z,0.80
2019-01-29T00:31:51.997Z,0.60
2019-01-29T00:32:51.995Z,0.60
2019-01-29T00:33:51.982Z,0.70
2019-01-29T00:34:51.975Z,0.80
2019-01-29T00:35:51.996Z,0.90
2019-01-29T00:36:51.959Z,0.80
2019-01-29T00:37:51.957Z,0.70
2019-01-29T00:38:51.949Z,0.80
2019-01-29T00:39:51.938Z,0.90
2019-01-29T00:40:51.963Z,0.70
2019-01-29T00:41:51.929Z,1.00
2019-01-29T00:42:51.919Z,0.80
2019-01-29T00:43:51.913Z,1.10
2019-01-29T00:44:51.904Z,0.80
2019-01-29T00:45:51.926Z,0.70
2019-01-29T00:46:51.891Z,0.70
2019-01-29T00:47:51.882Z,1.10
2019-01-29T00:48:51.873Z,0.90
2019-01-29T00:49:51.866Z,1.00
2019-01-29T00:50:51.891Z,1.10
2019-01-29T00:51:51.853Z,1.10
2019-01-29T00:52:51.852Z,1.70
2019-01-29T00:53:51.836Z,1.10
2019-01-29T00:54:51.831Z,1.20
2019-01-29T00:55:51.853Z,0.70
2019-01-29T00:56:51.817Z,1.50
2019-01-29T00:57:51.806Z,1.40
2019-01-29T00:58:51.803Z,1.20
2019-01-29T00:59:52.505Z,1.10
2019-01-29T01:00:51.812Z,1.00
2019-01-29T01:01:51.783Z,1.10
2019-01-29T01:02:51.776Z,1.10
2019-01-29T01:03:51.772Z,1.00
2019-01-29T01:04:51.758Z,1.10
2019-01-29T01:05:51.780Z,1.50
2019-01-29T01:06:51.743Z,1.40
2019-01-29T01:07:51.743Z,1.20
2019-01-29T01:08:51.728Z,0.90
2019-01-29T01:09:57.077Z,1.10
2019-01-29T01:10:51.747Z,0.90
2019-01-29T01:11:51.704Z,0.90
2019-01-29T01:12:51.700Z,1.00
2019-01-29T01:13:51.694Z,1.20
2019-01-29T01:14:51.683Z,1.40
2019-01-29T01:15:51.708Z,1.10
2019-01-29T01:16:51.672Z,1.10
2019-01-29T01:17:51.670Z,1.10
2019-01-29T01:18:51.663Z,0.90
2019-01-29T01:19:51.648Z,1.30
2019-01-29T01:20:51.671Z,1.20
2019-01-29T01:21:51.634Z,1.40
2019-01-29T01:22:51.810Z,0.80
2019-01-29T01:23:51.618Z,1.10
2019-01-29T01:24:51.611Z,1.10
2019-01-29T01:25:51.635Z,1.20
2019-01-29T01:26:51.601Z,1.10
2019-01-29T01:27:51.586Z,1.00
2019-01-29T01:28:51.585Z,1.20
2019-01-29T01:29:51.575Z,0.80
2019-01-29T01:30:51.605Z,1.10
2019-01-29T01:31:51.559Z,1.40
2019-01-29T01:32:51.551Z,1.00
2019-01-29T01:33:51.545Z,0.80
2019-01-29T01:34:51.533Z,1.30
2019-01-29T01:35:51.563Z,1.20
2019-01-29T01:36:51.521Z,1.30
2019-01-29T01:37:51.541Z,1.00
2019-01-29T01:38:51.509Z,1.40
2019-01-29T01:39:51.507Z,1.00
2019-01-29T01:40:51.493Z,1.00
2019-01-29T01:41:51.521Z,1.30
2019-01-29T01:42:51.641Z,1.30
2019-01-29T01:43:51.467Z,1.10
2019-01-29T01:44:51.464Z,1.10
2019-01-29T01:45:51.454Z,1.40
2019-01-29T01:46:51.480Z,1.30
2019-01-29T01:47:51.441Z,1.30
2019-01-29T01:48:51.436Z,1.40
2019-01-29T01:49:51.429Z,1.00
2019-01-29T01:50:51.417Z,1.40
2019-01-29T01:51:51.439Z,1.20
2019-01-29T01:52:58.938Z,1.30
2019-01-29T01:53:51.398Z,1.40
2019-01-29T01:54:51.388Z,0.90
2019-01-29T01:55:51.413Z,1.20
2019-01-29T01:56:51.378Z,1.00
2019-01-29T01:57:51.364Z,0.90
2019-01-29T01:58:51.358Z,0.90
2019-01-29T01:59:51.353Z,1.20
2019-01-29T02:00:51.376Z,0.70
2019-01-29T02:01:51.339Z,0.80
2019-01-29T02:02:51.360Z,1.20
2019-01-29T02:03:51.319Z,1.00
2019-01-29T02:04:51.311Z,1.00
2019-01-29T02:05:51.305Z,0.90
2019-01-29T02:06:51.327Z,0.90
2019-01-29T02:07:51.287Z,0.80
2019-01-29T02:08:51.283Z,1.00
2019-01-29T02:09:51.274Z,1.00
2019-01-29T02:10:51.272Z,1.20
2019-01-29T02:11:51.287Z,0.90
2019-01-29T02:12:51.253Z,0.90
2019-01-29T02:13:51.246Z,1.00
2019-01-29T02:14:51.238Z,1.00
2019-01-29T02:15:51.226Z,1.00
2019-01-29T02:16:51.251Z,0.90
2019-01-29T02:17:51.215Z,0.90
2019-01-29T02:18:51.215Z,1.10
2019-01-29T02:19:51.197Z,1.00
2019-01-29T02:20:51.189Z,1.10
2019-01-29T02:21:51.208Z,0.70
2019-01-29T02:22:51.176Z,1.50
2019-01-29T02:23:51.171Z,1.00
2019-01-29T02:24:51.162Z,0.50
2019-01-29T02:25:51.154Z,0.80
2019-01-29T02:26:51.178Z,1.10
2019-01-29T02:27:51.135Z,1.10
2019-01-29T02:28:51.130Z,1.30
2019-01-29T02:29:51.123Z,1.10
2019-01-29T02:30:51.116Z,1.80
2019-01-29T02:31:51.140Z,1.10
2019-01-29T02:32:51.135Z,1.50
2019-01-29T02:33:51.093Z,0.90
2019-01-29T02:34:51.087Z,1.40
2019-01-29T02:35:51.076Z,1.50
2019-01-29T02:36:51.072Z,1.40
2019-01-29T02:37:51.098Z,1.30
2019-01-29T02:38:51.057Z,1.30
2019-01-29T02:39:51.049Z,1.50
2019-01-29T02:40:51.039Z,1.60
2019-01-29T02:41:51.034Z,2.00
2019-01-29T02:42:51.054Z,1.40
2019-01-29T02:43:51.044Z,1.40
2019-01-29T02:44:51.009Z,1.40
2019-01-29T02:45:51.005Z,1.60
2019-01-29T02:46:50.996Z,1.30
2019-01-29T02:47:50.987Z,1.70
2019-01-29T02:48:51.006Z,1.90
2019-01-29T02:49:50.971Z,1.90
2019-01-29T02:50:50.963Z,1.80
2019-01-29T02:51:50.957Z,1.00
2019-01-29T02:52:50.976Z,1.00
2019-01-29T02:53:50.939Z,2.00
2019-01-29T02:54:50.934Z,1.30
2019-01-29T02:55:50.923Z,1.20
2019-01-29T02:56:50.922Z,0.90
2019-01-29T02:57:50.939Z,0.90
2019-01-29T02:58:50.901Z,1.20
2019-01-29T02:59:50.891Z,1.30
2019-01-29T03:00:50.888Z,1.30
2019-01-29T03:01:50.879Z,1.00
2019-01-29T03:02:50.899Z,1.20
2019-01-29T03:03:50.867Z,1.50
2019-01-29T03:04:53.409Z,0.90
2019-01-29T03:05:50.850Z,1.20
2019-01-29T03:06:50.842Z,1.30
2019-01-29T03:07:50.865Z,1.20
2019-01-29T03:08:50.825Z,1.40
2019-01-29T03:09:50.826Z,1.40
2019-01-29T03:10:50.810Z,0.90
2019-01-29T03:11:50.803Z,1.50
2019-01-29T03:12:50.825Z,1.00
2019-01-29T03:13:50.789Z,1.00
2019-01-29T03:14:50.777Z,1.00
2019-01-29T03:15:50.774Z,1.00
2019-01-29T03:16:50.768Z,0.80
2019-01-29T03:17:50.797Z,1.50
2019-01-29T03:18:50.753Z,0.90
2019-01-29T03:19:50.743Z,0.90
2019-01-29T03:20:50.732Z,1.00
2019-01-29T03:21:50.725Z,0.70
2019-01-29T03:22:50.754Z,1.30
2019-01-29T03:23:50.714Z,1.30
2019-01-29T03:24:50.703Z,1.30
2019-01-29T03:25:50.697Z,1.40
2019-01-29T03:26:50.690Z,1.30
2019-01-29T03:27:50.708Z,0.90
2019-01-29T03:28:50.672Z,1.30
2019-01-29T03:29:50.667Z,0.70
2019-01-29T03:30:50.663Z,1.00
2019-01-29T03:31:50.671Z,1.00
2019-01-29T03:32:50.698Z,0.80
2019-01-29T03:33:50.637Z,1.30
2019-01-29T03:34:50.628Z,1.00
2019-01-29T03:35:50.620Z,1.30
2019-01-29T03:36:50.612Z,1.80
2019-01-29T03:37:50.642Z,1.30
2019-01-29T03:38:50.594Z,0.90
2019-01-29T03:39:50.586Z,0.90
2019-01-29T03:40:50.582Z,1.00
2019-01-29T03:41:50.575Z,0.80
2019-01-29T03:42:50.598Z,1.50
2019-01-29T03:43:50.558Z,0.90
2019-01-29T03:44:50.552Z,0.80
2019-01-29T03:45:50.542Z,0.80
2019-01-29T03:46:50.534Z,1.30
2019-01-29T03:47:50.555Z,0.70
2019-01-29T03:48:50.522Z,0.70
2019-01-29T03:49:50.514Z,1.10
2019-01-29T03:50:50.506Z,0.70
2019-01-29T03:51:50.500Z,0.80
2019-01-29T03:52:50.513Z,0.50
2019-01-29T03:53:50.488Z,0.90
2019-01-29T03:54:50.474Z,1.10
2019-01-29T03:55:50.465Z,1.50
2019-01-29T03:56:50.461Z,1.10
2019-01-29T03:57:50.482Z,1.10
2019-01-29T03:58:50.471Z,1.10
2019-01-29T03:59:50.434Z,1.20
2019-01-29T04:00:50.428Z,0.70
2019-01-29T04:01:50.436Z,1.10
2019-01-29T04:02:50.419Z,0.60
2019-01-29T04:03:50.433Z,1.00
2019-01-29T04:04:50.397Z,0.70
2019-01-29T04:05:50.389Z,1.20
2019-01-29T04:06:50.382Z,1.00
2019-01-29T04:07:50.372Z,0.80
2019-01-29T04:08:50.400Z,1.20
2019-01-29T04:09:50.362Z,1.00
2019-01-29T04:10:50.359Z,1.00
2019-01-29T04:11:50.345Z,1.00
2019-01-29T04:12:50.377Z,1.60
2019-01-29T04:13:50.333Z,0.60
2019-01-29T04:14:50.348Z,1.10
2019-01-29T04:15:50.313Z,1.00
2019-01-29T04:16:50.303Z,1.10
2019-01-29T04:17:50.301Z,0.50
2019-01-29T04:18:50.315Z,1.30
2019-01-29T04:19:50.285Z,0.80
2019-01-29T04:20:50.273Z,0.90
2019-01-29T04:21:50.272Z,1.20
2019-01-29T04:22:50.272Z,1.10
2019-01-29T04:23:50.269Z,0.90
2019-01-29T04:24:50.245Z,1.30
2019-01-29T04:25:50.237Z,1.10
2019-01-29T04:26:50.228Z,0.90
2019-01-29T04:27:50.218Z,0.70
2019-01-29T04:28:50.261Z,0.90
2019-01-29T04:29:50.207Z,1.50
2019-01-29T04:30:50.197Z,0.80
2019-01-29T04:31:50.193Z,1.30
2019-01-29T04:32:50.217Z,0.90
2019-01-29T04:33:50.174Z,1.20
2019-01-29T04:34:50.194Z,1.30
2019-01-29T04:35:50.159Z,0.90
2019-01-29T04:36:50.149Z,1.20
2019-01-29T04:37:50.140Z,1.50
2019-01-29T04:38:50.161Z,1.80
2019-01-29T04:39:50.138Z,1.60
2019-01-29T04:40:50.119Z,2.20
2019-01-29T04:41:50.108Z,1.00
2019-01-29T04:42:50.107Z,1.30
2019-01-29T04:43:50.131Z,1.90
2019-01-29T04:44:50.088Z,1.00
2019-01-29T04:45:50.080Z,1.40
2019-01-29T04:46:50.080Z,0.70
2019-01-29T04:47:50.069Z,1.10
2019-01-29T04:48:50.085Z,1.60
2019-01-29T04:49:50.049Z,1.30
2019-01-29T04:50:50.042Z,2.30
2019-01-29T04:51:50.039Z,1.70
2019-01-29T04:52:50.024Z,1.60
2019-01-29T04:53:57.299Z,1.10
2019-01-29T04:54:50.118Z,1.10
2019-01-29T04:55:50.007Z,1.70
2019-01-29T04:56:49.997Z,1.50
2019-01-29T04:57:49.993Z,1.30
2019-01-29T04:58:50.009Z,1.80
2019-01-29T04:59:49.976Z,2.10
2019-01-29T05:00:49.982Z,1.70
2019-01-29T05:01:49.961Z,0.90
2019-01-29T05:02:49.954Z,2.50
2019-01-29T05:03:49.972Z,2.00
2019-01-29T05:04:49.936Z,1.80
2019-01-29T05:05:49.927Z,2.20
2019-01-29T05:06:49.945Z,2.10
2019-01-29T05:07:49.929Z,1.60
2019-01-29T05:08:49.912Z,1.80
2019-01-29T05:09:49.929Z,1.60
2019-01-29T05:10:49.892Z,1.30
2019-01-29T05:11:49.887Z,2.00
2019-01-29T05:12:49.916Z,2.00
2019-01-29T05:13:49.867Z,1.70
2019-01-29T05:14:49.886Z,1.70
2019-01-29T05:15:49.854Z,1.80
2019-01-29T05:16:49.847Z,2.20
2019-01-29T05:17:49.841Z,1.50
2019-01-29T05:18:49.862Z,1.40
2019-01-29T05:19:49.827Z,1.80
2019-01-29T05:20:49.851Z,2.10
2019-01-29T05:21:49.860Z,1.90
2019-01-29T05:22:49.809Z,1.60
2019-01-29T05:23:49.795Z,2.00
2019-01-29T05:24:49.819Z,2.00
2019-01-29T05:25:49.785Z,1.80
2019-01-29T05:26:49.774Z,1.90
2019-01-29T05:27:49.758Z,2.30
2019-01-29T05:28:49.757Z,2.30
2019-01-29T05:29:49.786Z,2.20
2019-01-29T05:30:49.740Z,2.40
2019-01-29T05:31:49.743Z,2.20
2019-01-29T05:32:49.728Z,2.50
2019-01-29T05:33:49.719Z,1.80
2019-01-29T05:34:49.744Z,1.70
2019-01-29T05:35:49.704Z,1.90
2019-01-29T05:36:49.697Z,2.30
2019-01-29T05:37:49.689Z,2.50
2019-01-29T05:38:49.681Z,1.70
2019-01-29T05:39:49.697Z,1.90
2019-01-29T05:40:49.811Z,2.00
2019-01-29T05:41:49.660Z,2.60
2019-01-29T05:42:49.645Z,2.40
2019-01-29T05:43:51.856Z,1.90
2019-01-29T05:44:49.660Z,2.00
2019-01-29T05:45:49.630Z,2.10
2019-01-29T05:46:49.619Z,2.10
2019-01-29T05:47:49.620Z,2.30
2019-01-29T05:48:49.643Z,2.40
2019-01-29T05:49:49.606Z,2.20
2019-01-29T05:50:49.619Z,2.90
2019-01-29T05:51:49.579Z,3.40
2019-01-29T05:52:49.575Z,2.60
2019-01-29T05:53:49.563Z,2.90
2019-01-29T05:54:49.587Z,4.40
2019-01-29T05:55:49.546Z,2.70
2019-01-29T05:56:49.539Z,2.40
2019-01-29T05:57:49.526Z,2.40
2019-01-29T05:58:49.526Z,2.40
2019-01-29T05:59:49.542Z,2.80
2019-01-29T06:00:49.506Z,2.60
2019-01-29T06:01:49.502Z,3.40
2019-01-29T06:02:49.494Z,3.20
2019-01-29T06:03:49.490Z,3.10
2019-01-29T06:04:49.512Z,3.10
2019-01-29T06:05:49.469Z,3.50
2019-01-29T06:06:49.464Z,4.20
2019-01-29T06:07:49.449Z,4.90
2019-01-29T06:08:49.446Z,7.70
2019-01-29T06:09:49.467Z,4.30
2019-01-29T06:10:49.431Z,3.50
2019-01-29T06:11:49.423Z,2.90
2019-01-29T06:12:49.413Z,2.60
2019-01-29T06:13:49.407Z,2.30
2019-01-29T06:14:49.425Z,2.10
2019-01-29T06:15:49.389Z,1.70
2019-01-29T06:16:49.384Z,1.70
2019-01-29T06:17:49.424Z,1.60
2019-01-29T06:18:49.365Z,1.70
2019-01-29T06:19:49.391Z,2.20
2019-01-29T06:20:49.351Z,2.20
2019-01-29T06:21:49.342Z,2.60
2019-01-29T06:22:49.333Z,2.20
2019-01-29T06:23:49.327Z,1.50
2019-01-29T06:24:49.348Z,1.60
2019-01-29T06:25:49.309Z,1.50
2019-01-29T06:26:49.301Z,1.40
2019-01-29T06:27:49.292Z,1.50
2019-01-29T06:28:49.311Z,1.30
2019-01-29T06:29:49.275Z,1.70
2019-01-29T06:30:49.295Z,1.30
2019-01-29T06:31:49.260Z,1.60
2019-01-29T06:32:49.253Z,1.70
2019-01-29T06:33:49.243Z,1.60
2019-01-29T06:34:49.234Z,1.60
2019-01-29T06:35:49.255Z,1.50
2019-01-29T06:36:50.901Z,1.60
2019-01-29T06:37:49.219Z,1.10
2019-01-29T06:38:49.203Z,1.90
2019-01-29T06:39:49.200Z,1.70
2019-01-29T06:40:49.220Z,1.40
2019-01-29T06:41:49.183Z,1.30
2019-01-29T06:42:51.029Z,1.80
2019-01-29T06:43:49.167Z,1.60
2019-01-29T06:44:49.161Z,1.50
2019-01-29T06:45:49.179Z,1.50
2019-01-29T06:46:49.177Z,1.50
2019-01-29T06:47:49.135Z,1.40
2019-01-29T06:48:49.128Z,1.30
2019-01-29T06:49:49.123Z,1.30
2019-01-29T06:50:49.147Z,1.20
2019-01-29T06:51:49.107Z,1.30
2019-01-29T06:52:49.101Z,1.60
2019-01-29T06:53:49.092Z,1.40
2019-01-29T06:54:49.082Z,1.10
2019-01-29T06:55:49.101Z,1.10
2019-01-29T06:56:49.076Z,1.90
2019-01-29T06:57:55.119Z,1.30
2019-01-29T06:58:49.053Z,1.40
2019-01-29T06:59:49.048Z,1.70
2019-01-29T07:00:49.071Z,1.30
2019-01-29T07:01:49.036Z,1.30
2019-01-29T07:02:49.025Z,1.00
2019-01-29T07:03:49.017Z,1.70
2019-01-29T07:04:49.010Z,1.40
2019-01-29T07:05:49.035Z,1.70
2019-01-29T07:06:49.021Z,1.70
2019-01-29T07:07:48.986Z,1.60
2019-01-29T07:08:48.981Z,2.20
2019-01-29T07:09:48.974Z,1.60
2019-01-29T07:10:48.996Z,1.80
2019-01-29T07:11:48.957Z,1.50
2019-01-29T07:12:48.947Z,1.70
2019-01-29T07:13:48.944Z,1.70
2019-01-29T07:14:48.939Z,1.50
2019-01-29T07:15:48.955Z,1.60
2019-01-29T07:16:48.920Z,1.70
2019-01-29T07:17:48.913Z,1.50
2019-01-29T07:18:48.910Z,1.70
2019-01-29T07:19:48.900Z,1.90
2019-01-29T07:20:48.922Z,1.30
2019-01-29T07:21:48.890Z,1.50
2019-01-29T07:22:48.881Z,2.00
2019-01-29T07:23:48.876Z,2.10
2019-01-29T07:24:48.872Z,1.50
2019-01-29T07:25:48.888Z,2.10
2019-01-29T07:26:48.879Z,1.70
2019-01-29T07:27:48.843Z,1.70
2019-01-29T07:28:48.840Z,1.60
2019-01-29T07:29:48.829Z,1.40
2019-01-29T07:30:48.829Z,1.70
2019-01-29T07:31:48.840Z,1.90
2019-01-29T07:32:48.806Z,1.50
2019-01-29T07:33:48.798Z,1.70
2019-01-29T07:34:48.784Z,1.90
2019-01-29T07:35:48.793Z,1.40
2019-01-29T07:36:48.817Z,1.90
2019-01-29T07:37:48.771Z,1.90
2019-01-29T07:38:48.762Z,1.50
2019-01-29T07:39:48.755Z,1.90
2019-01-29T07:40:48.779Z,2.20
2019-01-29T07:41:48.745Z,1.90
2019-01-29T07:42:48.735Z,1.80
2019-01-29T07:43:48.726Z,2.10
2019-01-29T07:44:48.723Z,2.00
2019-01-29T07:45:48.741Z,2.20
2019-01-29T07:46:48.710Z,1.90
2019-01-29T07:47:48.706Z,1.80
2019-01-29T07:48:48.694Z,2.10
2019-01-29T07:49:48.687Z,1.90
2019-01-29T07:50:48.709Z,1.60
2019-01-29T07:51:48.672Z,2.10
2019-01-29T07:52:48.662Z,1.50
2019-01-29T07:53:48.660Z,1.80
2019-01-29T07:54:51.199Z,2.50
2019-01-29T07:55:48.675Z,2.10
2019-01-29T07:56:48.645Z,1.70
2019-01-29T07:57:48.633Z,1.70
2019-01-29T07:58:49.350Z,1.70
2019-01-29T07:59:48.620Z,1.70
2019-01-29T08:00:48.641Z,1.70
2019-01-29T08:01:48.606Z,0.90
2019-01-29T08:02:48.602Z,1.00
2019-01-29T08:03:48.592Z,0.90
2019-01-29T08:04:48.589Z,1.20
2019-01-29T08:05:48.608Z,1.50
2019-01-29T08:06:48.575Z,1.50
2019-01-29T08:07:48.563Z,1.80
2019-01-29T08:08:48.553Z,2.00
2019-01-29T08:09:48.557Z,1.60
2019-01-29T08:10:48.577Z,2.20
2019-01-29T08:11:48.540Z,2.30
2019-01-29T08:12:48.536Z,1.80
2019-01-29T08:13:48.528Z,2.30
2019-01-29T08:14:48.523Z,1.90
2019-01-29T08:15:48.544Z,2.10
2019-01-29T08:16:48.519Z,2.40
2019-01-29T08:17:48.505Z,1.80
2019-01-29T08:18:48.497Z,2.30
2019-01-29T08:19:48.490Z,1.80
2019-01-29T08:20:48.510Z,2.20
2019-01-29T08:21:48.481Z,2.10
2019-01-29T08:22:48.474Z,1.80
2019-01-29T08:23:48.463Z,1.90
2019-01-29T08:24:51.996Z,1.90
2019-01-29T08:25:48.485Z,1.80
2019-01-29T08:26:48.448Z,1.80
2019-01-29T08:27:48.468Z,1.90
2019-01-29T08:28:48.433Z,2.00
2019-01-29T08:29:48.428Z,1.80
2019-01-29T08:30:48.423Z,2.10
2019-01-29T08:31:48.447Z,2.10
2019-01-29T08:32:48.407Z,2.00
2019-01-29T08:33:48.402Z,1.90
2019-01-29T08:34:48.394Z,1.90
2019-01-29T08:35:48.394Z,2.00
2019-01-29T08:36:48.408Z,1.60
2019-01-29T08:37:48.406Z,1.40
2019-01-29T08:38:48.371Z,1.70
2019-01-29T08:39:48.367Z,1.90
2019-01-29T08:40:48.357Z,1.40
2019-01-29T08:41:48.356Z,1.70
2019-01-29T08:42:48.374Z,1.40
2019-01-29T08:43:48.341Z,1.70
2019-01-29T08:44:48.332Z,1.20
2019-01-29T08:45:48.323Z,1.60
2019-01-29T08:46:48.323Z,1.60
2019-01-29T08:47:48.350Z,1.80
2019-01-29T08:48:48.308Z,1.40
2019-01-29T08:49:48.300Z,1.20
2019-01-29T08:50:48.299Z,1.10
2019-01-29T08:51:48.295Z,1.60
2019-01-29T08:52:48.310Z,2.00
2019-01-29T08:53:48.282Z,1.50
2019-01-29T08:54:48.282Z,1.60
2019-01-29T08:55:48.270Z,1.50
2019-01-29T08:56:48.267Z,1.30
2019-01-29T08:57:48.298Z,1.80
2019-01-29T08:58:48.259Z,1.90
2019-01-29T08:59:48.256Z,1.70
2019-01-29T09:00:48.249Z,2.00
2019-01-29T09:01:48.242Z,2.10
2019-01-29T09:02:48.270Z,3.20
2019-01-29T09:03:48.240Z,3.20
2019-01-29T09:04:48.296Z,3.40
2019-01-29T09:05:48.230Z,3.50
2019-01-29T09:06:48.223Z,3.50
2019-01-29T09:07:48.244Z,3.40
2019-01-29T09:08:48.210Z,3.50
2019-01-29T09:09:48.282Z,3.60
2019-01-29T09:10:48.207Z,3.40
2019-01-29T09:11:48.198Z,3.40
2019-01-29T09:12:48.230Z,3.20
2019-01-29T09:13:48.191Z,3.60
2019-01-29T09:14:48.190Z,4.20
2019-01-29T09:15:48.177Z,3.80
2019-01-29T09:16:48.209Z,4.50
2019-01-29T09:17:48.174Z,4.50
2019-01-29T09:18:48.197Z,3.70
2019-01-29T09:19:48.167Z,2.80
2019-01-29T09:20:51.041Z,3.10
2019-01-29T09:21:48.156Z,3.10
2019-01-29T09:22:48.183Z,3.60
2019-01-29T09:23:48.148Z,3.70
2019-01-29T09:24:48.149Z,3.00
2019-01-29T09:25:48.140Z,3.30
2019-01-29T09:26:48.141Z,2.90
2019-01-29T09:27:48.159Z,3.00
2019-01-29T09:28:48.132Z,3.30
2019-01-29T09:29:48.128Z,3.00
2019-01-29T09:30:48.125Z,3.10
2019-01-29T09:31:48.128Z,3.10
2019-01-29T09:32:48.144Z,2.90
2019-01-29T09:33:48.112Z,3.00
2019-01-29T09:34:48.107Z,2.40
2019-01-29T09:35:48.105Z,2.00
2019-01-29T09:36:48.131Z,2.50
2019-01-29T09:37:48.104Z,2.40
2019-01-29T09:38:48.101Z,2.50
2019-01-29T09:39:48.091Z,2.60
2019-01-29T09:40:48.093Z,2.40
2019-01-29T09:41:48.164Z,2.70
2019-01-29T09:42:48.085Z,2.30
2019-01-29T09:43:51.350Z,2.60
2019-01-29T09:44:49.742Z,2.60
2019-01-29T09:45:49.237Z,2.60
2019-01-29T09:46:49.013Z,2.40
2019-01-29T09:47:48.333Z,2.00
2019-01-29T09:48:48.222Z,1.90
2019-01-29T09:49:48.811Z,2.60
2019-01-29T09:50:49.043Z,2.20
2019-01-29T09:51:49.393Z,2.00
2019-01-29T09:52:48.136Z,2.40
2019-01-29T09:53:48.034Z,1.90
2019-01-29T09:54:48.031Z,1.80
2019-01-29T09:55:48.065Z,2.20
2019-01-29T09:56:48.060Z,2.20
2019-01-29T09:57:48.019Z,2.10
2019-01-29T09:58:48.049Z,1.90
2019-01-29T09:59:48.117Z,2.10
2019-01-29T10:00:48.007Z,2.10
2019-01-29T10:01:48.001Z,1.50
2019-01-29T10:02:48.212Z,1.70
2019-01-29T10:03:47.992Z,1.20
2019-01-29T10:04:48.079Z,1.70
2019-01-29T10:05:47.982Z,1.50
2019-01-29T10:06:48.004Z,1.60
2019-01-29T10:07:47.974Z,1.60
2019-01-29T10:08:47.970Z,1.40
2019-01-29T10:09:47.967Z,1.90
2019-01-29T10:10:47.961Z,1.80
2019-01-29T10:11:48.086Z,1.70
2019-01-29T10:12:47.951Z,1.90
2019-01-29T10:13:47.945Z,2.00
2019-01-29T10:14:47.942Z,1.30
2019-01-29T10:15:48.205Z,1.60
2019-01-29T10:16:47.966Z,1.80
2019-01-29T10:17:47.929Z,1.70
2019-01-29T10:18:48.019Z,1.70
2019-01-29T10:19:48.104Z,1.30
2019-01-29T10:20:47.912Z,1.40
2019-01-29T10:21:47.938Z,1.50
2019-01-29T10:22:47.900Z,1.70
2019-01-29T10:23:47.935Z,1.80
2019-01-29T10:24:47.897Z,1.60
2019-01-29T10:25:47.902Z,1.60
2019-01-29T10:26:47.994Z,2.00
2019-01-29T10:27:47.900Z,1.80
2019-01-29T10:28:47.876Z,1.70
2019-01-29T10:29:47.964Z,2.10
2019-01-29T10:30:47.917Z,1.60
2019-01-29T10:31:48.085Z,1.50
2019-01-29T10:32:47.929Z,2.20
2019-01-29T10:33:47.861Z,1.90
2019-01-29T10:34:47.858Z,1.60
2019-01-29T10:35:47.849Z,1.50
2019-01-29T10:36:47.899Z,1.50
2019-01-29T10:37:47.897Z,2.10
2019-01-29T10:38:47.885Z,2.00
2019-01-29T10:39:47.831Z,1.20
2019-01-29T10:40:47.826Z,1.80
2019-01-29T10:41:47.917Z,2.20
2019-01-29T10:42:47.875Z,2.00
2019-01-29T10:43:47.863Z,2.10
2019-01-29T10:44:48.065Z,1.70
2019-01-29T10:45:47.897Z,1.50
2019-01-29T10:46:47.902Z,1.80
2019-01-29T10:47:47.840Z,2.30
2019-01-29T10:48:47.839Z,1.80
2019-01-29T10:49:47.816Z,1.90
2019-01-29T10:50:47.783Z,1.90
2019-01-29T10:51:47.806Z,1.60
2019-01-29T10:52:47.817Z,1.50
2019-01-29T10:53:47.769Z,2.20
2019-01-29T10:54:47.811Z,2.00
2019-01-29T10:55:47.804Z,1.90
2019-01-29T10:56:47.765Z,1.70
2019-01-29T10:57:47.793Z,2.00
2019-01-29T10:58:47.755Z,1.70
2019-01-29T10:59:47.762Z,1.90
2019-01-29T11:00:47.747Z,2.30
2019-01-29T11:01:47.749Z,2.10
2019-01-29T11:02:47.777Z,2.40
2019-01-29T11:03:47.753Z,1.90
2019-01-29T11:04:47.737Z,1.90
2019-01-29T11:05:47.739Z,1.90
2019-01-29T11:06:47.736Z,2.00
2019-01-29T11:07:47.758Z,2.10
2019-01-29T11:08:47.726Z,2.10
2019-01-29T11:09:48.441Z,2.20
2019-01-29T11:10:47.722Z,2.10
2019-01-29T11:11:48.477Z,2.40
2019-01-29T11:12:47.745Z,1.90
2019-01-29T11:13:47.728Z,2.20
2019-01-29T11:14:47.717Z,2.10
2019-01-29T11:15:47.710Z,1.70
2019-01-29T11:16:47.705Z,1.80
2019-01-29T11:17:47.740Z,1.70
2019-01-29T11:18:47.701Z,1.90
2019-01-29T11:19:47.700Z,1.70
2019-01-29T11:20:47.697Z,1.90
2019-01-29T11:21:47.698Z,1.70
2019-01-29T11:22:47.723Z,1.70
2019-01-29T11:23:47.689Z,1.80
2019-01-29T11:24:47.695Z,1.80
2019-01-29T11:25:55.383Z,1.80
2019-01-29T11:26:47.717Z,1.70
2019-01-29T11:27:47.692Z,1.90
2019-01-29T11:28:47.681Z,1.80
2019-01-29T11:29:47.833Z,1.60
2019-01-29T11:30:47.710Z,1.70
2019-01-29T11:31:47.678Z,1.60
2019-01-29T11:32:47.706Z,1.70
2019-01-29T11:33:47.672Z,1.50
2019-01-29T11:34:47.675Z,1.30
2019-01-29T11:35:47.673Z,2.10
2019-01-29T11:36:47.668Z,1.70
2019-01-29T11:37:47.695Z,2.10
2019-01-29T11:38:47.669Z,2.00
2019-01-29T11:39:47.664Z,1.90
2019-01-29T11:40:47.664Z,1.90
2019-01-29T11:41:47.664Z,2.30
2019-01-29T11:42:47.689Z,1.90
2019-01-29T11:43:47.661Z,2.00
2019-01-29T11:44:47.662Z,1.70
2019-01-29T11:45:47.692Z,1.90
2019-01-29T11:46:47.659Z,1.80
2019-01-29T11:47:47.661Z,1.80
2019-01-29T11:48:47.693Z,1.30
2019-01-29T11:49:47.659Z,2.00
2019-01-29T11:50:47.687Z,1.60
2019-01-29T11:51:47.661Z,1.60
2019-01-29T11:52:47.686Z,1.90
2019-01-29T11:53:47.657Z,1.60
2019-01-29T11:54:47.662Z,2.00
2019-01-29T11:55:47.668Z,1.90
2019-01-29T11:56:47.654Z,1.80
2019-01-29T11:57:47.681Z,1.80
2019-01-29T11:58:47.657Z,1.40
2019-01-29T11:59:47.649Z,1.50
2019-01-29T12:00:47.654Z,2.00
2019-01-29T12:01:47.650Z,1.90
2019-01-29T12:02:47.683Z,1.70
2019-01-29T12:03:47.646Z,1.80
2019-01-29T12:04:47.643Z,1.80
2019-01-29T12:05:47.670Z,2.10
2019-01-29T12:06:47.640Z,1.40
2019-01-29T12:07:47.635Z,1.50
2019-01-29T12:08:47.663Z,1.70
2019-01-29T12:09:47.629Z,1.50
2019-01-29T12:10:47.631Z,1.70
2019-01-29T12:11:47.626Z,1.60
2019-01-29T12:12:47.621Z,1.90
2019-01-29T12:13:47.648Z,2.00
2019-01-29T12:14:47.617Z,1.70
2019-01-29T12:15:47.614Z,1.80
2019-01-29T12:16:47.615Z,1.90
2019-01-29T12:17:47.604Z,1.90
2019-01-29T12:18:47.634Z,2.10
2019-01-29T12:19:47.599Z,1.80
2019-01-29T12:20:47.596Z,1.80
2019-01-29T12:21:47.594Z,2.40
2019-01-29T12:22:47.591Z,2.00
2019-01-29T12:23:47.612Z,2.00
2019-01-29T12:24:47.581Z,1.60
2019-01-29T12:25:47.576Z,2.00
2019-01-29T12:26:47.578Z,1.90
2019-01-29T12:27:47.568Z,1.80
2019-01-29T12:28:47.602Z,1.70
2019-01-29T12:29:47.566Z,1.50
2019-01-29T12:30:47.563Z,1.60
2019-01-29T12:31:47.591Z,1.30
2019-01-29T12:32:47.550Z,1.80
2019-01-29T12:33:47.548Z,1.70
2019-01-29T12:34:47.577Z,1.70
2019-01-29T12:35:47.535Z,2.10
2019-01-29T12:36:47.564Z,1.80
2019-01-29T12:37:47.527Z,1.70
2019-01-29T12:38:47.529Z,1.50
2019-01-29T12:39:47.519Z,1.90
2019-01-29T12:40:47.544Z,1.10
2019-01-29T12:41:47.515Z,1.90
2019-01-29T12:42:47.508Z,1.70
2019-01-29T12:43:47.502Z,1.90
2019-01-29T12:44:47.499Z,1.70
2019-01-29T12:45:48.247Z,2.00
2019-01-29T12:46:47.486Z,2.20
2019-01-29T12:47:47.485Z,2.20
2019-01-29T12:48:47.479Z,2.00
2019-01-29T12:49:47.476Z,2.20
2019-01-29T12:50:47.498Z,2.20
2019-01-29T12:51:47.466Z,2.40
2019-01-29T12:52:47.457Z,2.20
2019-01-29T12:53:47.460Z,2.10
2019-01-29T12:54:47.455Z,2.30
2019-01-29T12:55:47.478Z,2.20
2019-01-29T12:56:47.445Z,2.10
2019-01-29T12:57:47.441Z,2.10
2019-01-29T12:58:47.432Z,2.10
2019-01-29T12:59:47.461Z,2.10
2019-01-29T13:00:47.434Z,2.40
2019-01-29T13:01:47.422Z,2.40
2019-01-29T13:02:47.418Z,2.50
2019-01-29T13:03:47.413Z,2.50
2019-01-29T13:04:47.439Z,2.30
2019-01-29T13:05:47.406Z,2.30
2019-01-29T13:06:47.401Z,2.50
2019-01-29T13:07:47.398Z,2.60
2019-01-29T13:08:47.394Z,2.50
2019-01-29T13:09:47.419Z,2.40
2019-01-29T13:10:47.396Z,2.70
2019-01-29T13:11:47.416Z,2.10
2019-01-29T13:12:47.382Z,2.20
2019-01-29T13:13:47.376Z,2.60
2019-01-29T13:14:47.376Z,2.50
2019-01-29T13:15:47.399Z,2.70
2019-01-29T13:16:47.366Z,3.20
2019-01-29T13:17:47.364Z,2.90
2019-01-29T13:18:47.360Z,2.30